Zografos, Greece
Current Conditions -  °F | °C
As of 10:50 AM on Thursday 23 Oct 2014 (Local Time) from LGTS Reporting Station
Moderate Rain Moderate Rain  
Wind Chill: 54°   Ceiling: 7000
Heat Index: 54°   Visibility: 4mi
Dew Point: 50°   Wind: 14mph
Humidity: 88%   Direction: 350°N
Pressure: 29.5"   Gusts: NA
Location:  40.28°N, 23.25°E
Report Text: LGTS 230750Z 35012KT 6000 RA FEW016CB SCT018TCU OVC070 12/10 Q0999 NOSIG
Loading
Personal Weather Stations






























Interactive Weather Map New forecast layout! Learn more

10-Day Weather Forecast

Advertisements
Track Severe Weather on mobile